Main page
METAR-TAF:

METAR-TAF

Airports :

Dijon-Bourgogne airport

Dijon, France

latitude: 47-16N, longitude: 005-05E, elevation: 222 m

Current weather observation

The report was made 16 minutes ago, at 23:00 UTC
Wind 4 kt from the North/Northwest
Temperature 15°C
Humidity 59%
Pressure 997 hPa
Visibility 10 km or more
no clouds below 1500 m and no cumulonimbus

METAR: LFSD 222300Z AUTO 34004KT CAVOK 15/07 Q0997

Time: 01:16 (23:16 UTC)


TAF: missing

Weather observations and forecasts of more than 4000 airports (METAR and TAF reports).

The available stations are represented by yellow and red dots on the map.

Hover mouse over dot to see the name of the station.

Then click to see weather observations and forecasts.

To change the map : click on the green buttons with a black cross to zoom in, on the green button with a dash to zoom out, or on the green arrows for adjacent maps.


METAR-TAF: